createdAt,value
2022-08-29T00:00:49.115Z,11.40
2022-08-29T00:03:17.339Z,11.20
2022-08-29T00:05:45.234Z,11.20
2022-08-29T00:08:17.232Z,11.10
2022-08-29T00:10:43.960Z,11.20
2022-08-29T00:13:11.479Z,11.20
2022-08-29T00:15:41.739Z,11.30
2022-08-29T00:18:13.365Z,11.20
2022-08-29T00:20:40.859Z,11.20
2022-08-29T00:23:07.863Z,11.20
2022-08-29T00:25:34.905Z,11.00
2022-08-29T00:28:02.145Z,11.10
2022-08-29T00:30:29.435Z,11.00
2022-08-29T00:32:56.099Z,10.90
2022-08-29T00:35:29.854Z,11.00
2022-08-29T00:37:57.895Z,11.00
2022-08-29T00:40:32.610Z,10.80
2022-08-29T00:42:59.889Z,10.70
2022-08-29T00:45:27.372Z,10.70
2022-08-29T00:48:00.800Z,10.70
2022-08-29T00:50:31.651Z,10.70
2022-08-29T00:53:00.209Z,10.70
2022-08-29T00:55:31.375Z,10.70
2022-08-29T00:58:13.362Z,10.70
2022-08-29T01:00:42.587Z,10.60
2022-08-29T01:03:09.331Z,10.50
2022-08-29T01:05:37.449Z,10.50
2022-08-29T01:08:04.707Z,10.50
2022-08-29T01:10:50.159Z,10.50
2022-08-29T01:13:16.961Z,10.60
2022-08-29T01:15:46.483Z,10.40
2022-08-29T01:18:34.006Z,10.40
2022-08-29T01:21:15.620Z,10.40
2022-08-29T01:23:46.225Z,10.40
2022-08-29T01:26:13.330Z,10.40
2022-08-29T01:28:43.550Z,10.40
2022-08-29T01:31:37.818Z,10.20
2022-08-29T01:34:04.829Z,10.20
2022-08-29T01:36:45.718Z,10.20
2022-08-29T01:39:13.174Z,10.00
2022-08-29T01:41:41.827Z,9.90
2022-08-29T01:44:14.829Z,9.90
2022-08-29T01:46:41.761Z,10.00
2022-08-29T01:49:10.306Z,10.10
2022-08-29T01:51:37.809Z,10.00
2022-08-29T01:54:07.253Z,10.00
2022-08-29T01:56:37.200Z,10.00
2022-08-29T01:59:06.489Z,9.90
2022-08-29T02:01:38.109Z,9.80
2022-08-29T02:04:06.515Z,9.70
2022-08-29T02:06:33.961Z,9.70
2022-08-29T02:09:01.033Z,9.80
2022-08-29T02:11:28.245Z,9.80
2022-08-29T02:13:57.268Z,9.90
2022-08-29T02:16:27.225Z,9.90
2022-08-29T02:18:54.931Z,9.80
2022-08-29T02:21:24.358Z,9.80
2022-08-29T02:23:51.884Z,9.80
2022-08-29T02:26:21.110Z,9.80
2022-08-29T02:28:49.375Z,9.90
2022-08-29T02:31:16.636Z,9.90
2022-08-29T02:33:43.703Z,9.90
2022-08-29T02:36:10.335Z,9.80
2022-08-29T02:38:37.753Z,9.60
2022-08-29T02:41:04.564Z,9.60
2022-08-29T02:43:31.479Z,9.50
2022-08-29T02:45:58.092Z,9.60
2022-08-29T02:48:24.907Z,9.40
2022-08-29T02:50:54.232Z,9.40
2022-08-29T02:53:24.487Z,9.20
2022-08-29T02:55:54.299Z,9.30
2022-08-29T02:58:22.298Z,9.30
2022-08-29T03:00:49.349Z,9.40
2022-08-29T03:03:16.519Z,9.50
2022-08-29T03:05:43.502Z,9.50
2022-08-29T03:08:13.968Z,9.40
2022-08-29T03:10:42.153Z,9.40
2022-08-29T03:13:09.992Z,9.30
2022-08-29T03:15:36.889Z,9.30
2022-08-29T03:18:04.153Z,9.20
2022-08-29T03:20:30.948Z,9.30
2022-08-29T03:22:57.602Z,9.40
2022-08-29T03:25:24.657Z,9.40
2022-08-29T03:27:52.792Z,9.40
2022-08-29T03:30:20.207Z,9.30
2022-08-29T03:32:47.146Z,9.30
2022-08-29T03:35:14.733Z,9.40
2022-08-29T03:37:41.382Z,9.50
2022-08-29T03:40:09.765Z,9.60
2022-08-29T03:42:36.977Z,9.50
2022-08-29T03:45:09.202Z,9.30
2022-08-29T03:47:35.907Z,9.40
2022-08-29T03:50:03.241Z,9.40
2022-08-29T03:52:31.323Z,9.30
2022-08-29T03:54:58.346Z,9.40
2022-08-29T03:57:26.827Z,9.30
2022-08-29T03:59:54.906Z,9.30
2022-08-29T04:02:21.585Z,9.30
2022-08-29T04:05:08.270Z,9.30
2022-08-29T04:07:56.715Z,9.20
2022-08-29T04:10:29.433Z,9.00
2022-08-29T04:12:56.656Z,8.90
2022-08-29T04:15:24.978Z,8.60
2022-08-29T04:17:54.316Z,8.40
2022-08-29T04:20:26.347Z,8.60
2022-08-29T04:22:54.572Z,8.70
2022-08-29T04:25:22.380Z,8.70
2022-08-29T04:27:49.576Z,8.80
2022-08-29T04:30:19.484Z,8.90
2022-08-29T04:32:47.378Z,8.90
2022-08-29T04:35:15.610Z,8.90
2022-08-29T04:37:43.704Z,9.00
2022-08-29T04:40:15.678Z,8.90
2022-08-29T04:42:42.543Z,8.80
2022-08-29T04:45:14.397Z,8.80
2022-08-29T04:47:42.618Z,8.90
2022-08-29T04:50:12.777Z,9.00
2022-08-29T04:52:39.703Z,9.10
2022-08-29T04:55:08.094Z,9.10
2022-08-29T04:57:36.118Z,9.10
2022-08-29T05:00:06.478Z,9.10
2022-08-29T05:02:33.166Z,9.10
2022-08-29T05:04:59.878Z,8.90
2022-08-29T05:07:27.351Z,8.60
2022-08-29T05:10:00.945Z,8.50
2022-08-29T05:12:31.505Z,8.50
2022-08-29T05:14:58.275Z,8.60
2022-08-29T05:17:25.797Z,8.80
2022-08-29T05:19:53.437Z,8.60
2022-08-29T05:22:20.837Z,8.40
2022-08-29T05:24:48.905Z,8.40
2022-08-29T05:27:21.414Z,8.60
2022-08-29T05:29:50.110Z,8.90
2022-08-29T05:32:18.753Z,9.10
2022-08-29T05:34:49.615Z,9.20
2022-08-29T05:37:19.402Z,9.00
2022-08-29T05:39:47.397Z,9.00
2022-08-29T05:42:16.316Z,9.30
2022-08-29T05:44:43.606Z,9.40
2022-08-29T05:47:12.506Z,9.70
2022-08-29T05:49:40.963Z,9.80
2022-08-29T05:52:08.222Z,9.80
2022-08-29T05:54:37.390Z,10.00
2022-08-29T05:57:05.504Z,10.10
2022-08-29T05:59:32.193Z,10.30
2022-08-29T06:01:58.950Z,10.60
2022-08-29T06:04:25.754Z,10.90
2022-08-29T06:06:52.413Z,11.00
2022-08-29T06:09:19.097Z,11.20
2022-08-29T06:11:48.419Z,11.30
2022-08-29T06:14:16.720Z,11.50
2022-08-29T06:16:43.392Z,11.80
2022-08-29T06:19:10.180Z,12.00
2022-08-29T06:21:36.873Z,12.10
2022-08-29T06:24:04.782Z,12.30
2022-08-29T06:26:31.518Z,12.60
2022-08-29T06:28:58.461Z,13.00
2022-08-29T06:31:29.116Z,13.20
2022-08-29T06:34:00.168Z,13.50
2022-08-29T06:36:28.950Z,14.40
2022-08-29T06:38:57.255Z,15.10
2022-08-29T06:41:25.000Z,15.40
2022-08-29T06:43:52.582Z,15.80
2022-08-29T06:46:26.695Z,16.10
2022-08-29T06:48:53.979Z,16.30
2022-08-29T06:51:20.740Z,16.40
2022-08-29T06:53:47.523Z,16.20
2022-08-29T06:56:14.433Z,16.40
2022-08-29T06:58:42.097Z,16.50
2022-08-29T07:01:16.798Z,16.50
2022-08-29T07:03:43.681Z,16.30
2022-08-29T07:06:12.146Z,16.80
2022-08-29T07:08:53.285Z,17.20
2022-08-29T07:11:22.392Z,17.60
2022-08-29T07:13:49.022Z,17.60
2022-08-29T07:16:18.575Z,17.20
2022-08-29T07:18:46.276Z,17.10
2022-08-29T07:21:20.405Z,17.10
2022-08-29T07:23:48.642Z,17.30
2022-08-29T07:26:24.089Z,17.60
2022-08-29T07:28:53.825Z,17.60
2022-08-29T07:31:21.180Z,17.70
2022-08-29T07:33:53.368Z,18.00
2022-08-29T07:36:28.689Z,18.50
2022-08-29T07:38:55.335Z,18.80
2022-08-29T07:41:21.976Z,18.60
2022-08-29T07:43:50.289Z,18.80
2022-08-29T07:46:19.528Z,19.10
2022-08-29T07:48:47.300Z,19.10
2022-08-29T07:51:20.933Z,18.90
2022-08-29T07:53:48.033Z,18.70
2022-08-29T07:56:40.241Z,18.80
2022-08-29T07:59:09.060Z,19.50
2022-08-29T08:01:41.783Z,20.70
2022-08-29T08:04:10.993Z,21.90
2022-08-29T08:06:44.947Z,22.60
2022-08-29T08:09:14.481Z,22.60
2022-08-29T08:11:45.161Z,23.30
2022-08-29T08:14:12.824Z,23.20
2022-08-29T08:16:44.154Z,23.50
2022-08-29T08:19:17.787Z,23.60
2022-08-29T08:21:49.720Z,23.50
2022-08-29T08:24:20.277Z,22.80
2022-08-29T08:26:55.123Z,22.00
2022-08-29T08:29:28.104Z,22.00
2022-08-29T08:31:59.935Z,23.20
2022-08-29T08:34:35.836Z,24.60
2022-08-29T08:37:12.676Z,25.00
2022-08-29T08:39:52.128Z,25.30
2022-08-29T08:42:44.994Z,25.20
2022-08-29T08:45:23.319Z,25.90
2022-08-29T08:47:53.049Z,26.50
2022-08-29T08:51:04.520Z,26.10
2022-08-29T08:53:40.840Z,26.80
2022-08-29T08:56:23.058Z,27.90
2022-08-29T08:58:59.508Z,28.60
2022-08-29T09:01:35.100Z,29.20
2022-08-29T09:04:27.194Z,29.60
2022-08-29T09:07:02.329Z,29.50
2022-08-29T09:09:49.192Z,30.00
2022-08-29T09:12:38.060Z,30.30
2022-08-29T09:15:13.837Z,30.20
2022-08-29T09:18:00.900Z,29.90
2022-08-29T09:20:35.564Z,29.60
2022-08-29T09:23:18.370Z,29.40
2022-08-29T09:25:55.527Z,29.70
2022-08-29T09:28:25.845Z,30.60
2022-08-29T09:31:28.760Z,30.90
2022-08-29T09:33:57.274Z,31.30
2022-08-29T09:36:41.015Z,32.10
2022-08-29T09:39:17.510Z,32.80
2022-08-29T09:41:55.177Z,32.60
2022-08-29T09:44:31.687Z,33.10
2022-08-29T09:47:18.353Z,32.90
2022-08-29T09:50:04.551Z,32.90
2022-08-29T09:52:34.860Z,33.40
2022-08-29T09:55:23.981Z,32.30
2022-08-29T09:58:30.054Z,32.70
2022-08-29T10:01:25.621Z,32.50
2022-08-29T10:04:04.802Z,32.50
2022-08-29T10:06:49.490Z,32.80
2022-08-29T10:09:28.688Z,32.80
2022-08-29T10:12:17.201Z,32.60
2022-08-29T10:14:53.673Z,32.80
2022-08-29T10:17:48.095Z,32.70
2022-08-29T10:20:16.220Z,32.80
2022-08-29T10:22:55.309Z,32.10
2022-08-29T10:25:36.897Z,32.20
2022-08-29T10:28:17.668Z,32.70
2022-08-29T10:31:01.057Z,33.30
2022-08-29T10:34:08.226Z,33.90
2022-08-29T10:36:39.475Z,34.10
2022-08-29T10:39:19.366Z,34.30
2022-08-29T10:42:00.728Z,34.60
2022-08-29T10:44:52.132Z,34.50
2022-08-29T10:47:36.900Z,34.90
2022-08-29T10:50:27.429Z,35.40
2022-08-29T10:53:13.283Z,36.30
2022-08-29T10:55:51.363Z,36.90
2022-08-29T10:58:40.300Z,36.30
2022-08-29T11:01:25.487Z,35.90
2022-08-29T11:04:02.612Z,35.60
2022-08-29T11:06:44.970Z,36.00
2022-08-29T11:09:33.992Z,35.80
2022-08-29T11:12:17.556Z,35.60
2022-08-29T11:15:48.359Z,34.20
2022-08-29T11:18:51.157Z,34.30
2022-08-29T11:22:02.324Z,34.80
2022-08-29T11:24:37.356Z,35.70
2022-08-29T11:27:38.156Z,36.00
2022-08-29T11:30:24.591Z,37.10
2022-08-29T11:33:03.704Z,36.90
2022-08-29T11:36:07.773Z,36.30
2022-08-29T11:39:07.259Z,36.20
2022-08-29T11:41:34.363Z,36.50
2022-08-29T11:44:10.331Z,36.50
2022-08-29T11:46:56.741Z,36.00
2022-08-29T11:49:40.224Z,36.50
2022-08-29T11:52:17.736Z,37.00
2022-08-29T11:54:54.803Z,37.50
2022-08-29T11:57:31.988Z,37.50
2022-08-29T12:00:02.340Z,37.30
2022-08-29T12:02:30.277Z,36.70
2022-08-29T12:05:13.119Z,37.00
2022-08-29T12:07:52.020Z,36.30
2022-08-29T12:10:30.611Z,37.70
2022-08-29T12:13:10.239Z,37.00
2022-08-29T12:15:51.011Z,35.90
2022-08-29T12:18:20.941Z,35.40
2022-08-29T12:20:50.739Z,35.30
2022-08-29T12:23:27.975Z,35.00
2022-08-29T12:26:22.514Z,35.30
2022-08-29T12:28:57.400Z,34.80
2022-08-29T12:31:37.472Z,34.80
2022-08-29T12:34:29.856Z,34.80
2022-08-29T12:37:14.962Z,33.90
2022-08-29T12:40:21.526Z,34.00
2022-08-29T12:43:33.087Z,34.60
2022-08-29T12:46:14.485Z,33.60
2022-08-29T12:48:57.627Z,33.10
2022-08-29T12:51:43.389Z,33.00
2022-08-29T12:54:12.100Z,32.90
2022-08-29T12:56:55.207Z,32.00
2022-08-29T12:59:22.193Z,31.80
2022-08-29T13:01:56.216Z,31.60
2022-08-29T13:04:32.529Z,31.60
2022-08-29T13:07:08.856Z,31.60
2022-08-29T13:09:46.126Z,31.30
2022-08-29T13:12:19.828Z,31.10
2022-08-29T13:15:03.830Z,30.90
2022-08-29T13:17:39.832Z,31.30
2022-08-29T13:20:47.124Z,31.70
2022-08-29T13:23:49.450Z,31.10
2022-08-29T13:26:16.345Z,30.80
2022-08-29T13:29:11.336Z,30.80
2022-08-29T13:31:43.536Z,30.70
2022-08-29T13:34:12.716Z,30.70
2022-08-29T13:36:47.802Z,30.30
2022-08-29T13:39:17.773Z,30.20
2022-08-29T13:41:51.040Z,30.30
2022-08-29T13:44:26.488Z,29.90
2022-08-29T13:46:59.353Z,29.60
2022-08-29T13:49:28.899Z,29.50
2022-08-29T13:51:57.691Z,29.70
2022-08-29T13:54:28.158Z,29.50
2022-08-29T13:57:01.189Z,29.30
2022-08-29T13:59:36.079Z,29.00
2022-08-29T14:02:08.913Z,28.60
2022-08-29T14:04:41.753Z,28.20
2022-08-29T14:07:16.332Z,27.90
2022-08-29T14:09:45.750Z,28.10
2022-08-29T14:12:14.204Z,28.40
2022-08-29T14:14:45.615Z,28.50
2022-08-29T14:17:18.525Z,28.40
2022-08-29T14:19:46.775Z,28.30
2022-08-29T14:22:14.493Z,28.20
2022-08-29T14:24:41.999Z,28.00
2022-08-29T14:27:17.140Z,28.00
2022-08-29T14:29:47.805Z,28.00
2022-08-29T14:32:14.916Z,27.90
2022-08-29T14:34:41.954Z,27.70
2022-08-29T14:37:21.053Z,27.80
2022-08-29T14:39:50.452Z,27.90
2022-08-29T14:42:18.740Z,28.00
2022-08-29T14:44:45.767Z,28.10
2022-08-29T14:47:14.980Z,28.00
2022-08-29T14:49:42.019Z,27.60
2022-08-29T14:52:32.564Z,27.70
2022-08-29T14:54:59.679Z,27.60
2022-08-29T14:57:28.144Z,27.40
2022-08-29T14:59:57.973Z,27.30
2022-08-29T15:02:30.042Z,27.30
2022-08-29T15:04:58.679Z,27.30
2022-08-29T15:07:25.672Z,27.30
2022-08-29T15:09:52.723Z,27.40
2022-08-29T15:12:21.698Z,27.30
2022-08-29T15:14:48.862Z,27.20
2022-08-29T15:17:15.811Z,27.20
2022-08-29T15:22:30.478Z,26.80
2022-08-29T15:25:10.229Z,26.80
2022-08-29T15:27:43.874Z,26.60
2022-08-29T15:30:11.793Z,26.40
2022-08-29T15:32:42.229Z,26.30
2022-08-29T15:35:14.172Z,26.30
2022-08-29T15:37:42.901Z,26.30
2022-08-29T15:40:13.112Z,26.40
2022-08-29T15:42:44.239Z,26.50
2022-08-29T15:45:14.493Z,26.50
2022-08-29T15:47:46.613Z,26.40
2022-08-29T15:50:18.898Z,26.40
2022-08-29T15:52:45.924Z,26.40
2022-08-29T15:55:12.922Z,26.30
2022-08-29T15:57:52.172Z,26.20
2022-08-29T16:00:21.573Z,26.20
2022-08-29T16:03:03.599Z,26.10
2022-08-29T16:05:35.467Z,26.10
2022-08-29T16:08:07.737Z,26.10
2022-08-29T16:10:38.188Z,26.00
2022-08-29T16:13:05.663Z,25.90
2022-08-29T16:15:34.969Z,25.90
2022-08-29T16:18:02.628Z,25.80
2022-08-29T16:20:34.221Z,25.80
2022-08-29T16:23:02.108Z,25.70
2022-08-29T16:25:31.168Z,25.70
2022-08-29T16:28:07.775Z,25.70
2022-08-29T16:30:35.286Z,25.60
2022-08-29T16:33:11.186Z,25.50
2022-08-29T16:35:38.137Z,25.50
2022-08-29T16:38:12.039Z,25.50
2022-08-29T16:40:46.248Z,25.50
2022-08-29T16:43:13.302Z,25.60
2022-08-29T16:45:46.432Z,25.40
2022-08-29T16:48:19.111Z,25.30
2022-08-29T16:50:51.754Z,25.20
2022-08-29T16:53:37.992Z,25.10
2022-08-29T16:56:12.371Z,25.00
2022-08-29T16:59:02.151Z,24.90
2022-08-29T17:01:49.892Z,24.90
2022-08-29T17:04:29.938Z,24.70
2022-08-29T17:07:05.026Z,24.70
2022-08-29T17:09:31.968Z,24.70
2022-08-29T17:11:59.234Z,24.70
2022-08-29T17:14:29.289Z,24.70
2022-08-29T17:16:56.860Z,24.60
2022-08-29T17:19:24.668Z,24.60
2022-08-29T17:21:54.624Z,24.40
2022-08-29T17:24:24.854Z,24.30
2022-08-29T17:26:53.892Z,24.30
2022-08-29T17:29:21.006Z,24.20
2022-08-29T17:31:50.955Z,24.00
2022-08-29T17:34:24.252Z,24.00
2022-08-29T17:36:51.418Z,23.80
2022-08-29T17:39:26.308Z,23.60
2022-08-29T17:41:53.697Z,23.40
2022-08-29T17:44:21.831Z,23.30
2022-08-29T17:46:48.777Z,23.10
2022-08-29T17:49:15.651Z,22.90
2022-08-29T17:51:42.773Z,22.70
2022-08-29T17:54:14.766Z,22.60
2022-08-29T17:56:57.791Z,22.40
2022-08-29T17:59:28.990Z,22.30
2022-08-29T18:01:57.455Z,22.10
2022-08-29T18:04:26.475Z,21.90
2022-08-29T18:06:55.254Z,21.70
2022-08-29T18:09:27.267Z,21.50
2022-08-29T18:11:58.412Z,21.40
2022-08-29T18:14:33.638Z,21.30
2022-08-29T18:17:01.794Z,21.10
2022-08-29T18:19:31.698Z,21.00
2022-08-29T18:21:58.838Z,20.90
2022-08-29T18:24:25.784Z,20.90
2022-08-29T18:26:56.365Z,20.80
2022-08-29T18:29:24.357Z,20.70
2022-08-29T18:31:51.329Z,20.70
2022-08-29T18:34:21.753Z,20.60
2022-08-29T18:36:48.854Z,20.50
2022-08-29T18:39:16.439Z,20.40
2022-08-29T18:41:46.098Z,20.30
2022-08-29T18:44:13.046Z,20.20
2022-08-29T18:46:47.779Z,20.00
2022-08-29T18:49:41.547Z,19.80
2022-08-29T18:52:09.723Z,19.60
2022-08-29T18:54:39.484Z,19.50
2022-08-29T18:57:10.352Z,19.40
2022-08-29T18:59:40.165Z,19.40
2022-08-29T19:02:12.658Z,19.20
2022-08-29T19:04:44.912Z,19.00
2022-08-29T19:07:24.371Z,19.00
2022-08-29T19:09:53.113Z,18.90
2022-08-29T19:12:19.983Z,18.80
2022-08-29T19:14:48.920Z,18.70
2022-08-29T19:17:17.653Z,18.60
2022-08-29T19:20:03.284Z,18.50
2022-08-29T19:22:40.318Z,18.40
2022-08-29T19:25:08.841Z,18.30
2022-08-29T19:27:43.602Z,18.20
2022-08-29T19:30:15.902Z,18.20
2022-08-29T19:32:45.434Z,18.00
2022-08-29T19:35:14.465Z,17.90
2022-08-29T19:37:44.740Z,18.00
2022-08-29T19:40:19.503Z,17.90
2022-08-29T19:42:47.714Z,17.80
2022-08-29T19:45:30.993Z,17.60
2022-08-29T19:48:05.185Z,17.60
2022-08-29T19:50:32.370Z,17.40
2022-08-29T19:52:59.315Z,17.40
2022-08-29T19:55:26.996Z,17.40
2022-08-29T19:57:56.167Z,17.30
2022-08-29T20:00:27.648Z,17.20
2022-08-29T20:02:57.204Z,17.10
2022-08-29T20:05:25.971Z,16.90
2022-08-29T20:07:54.506Z,16.90
2022-08-29T20:10:25.161Z,16.90
2022-08-29T20:12:54.193Z,16.80
2022-08-29T20:15:30.493Z,16.70
2022-08-29T20:18:06.055Z,16.60
2022-08-29T20:20:36.673Z,16.40
2022-08-29T20:23:07.666Z,16.40
2022-08-29T20:25:35.710Z,16.40
2022-08-29T20:28:05.933Z,16.30
2022-08-29T20:30:34.450Z,16.20
2022-08-29T20:33:05.301Z,16.20
2022-08-29T20:35:54.340Z,16.10
2022-08-29T20:38:21.413Z,16.00
2022-08-29T20:40:50.281Z,16.10
2022-08-29T20:43:20.318Z,16.00
2022-08-29T20:45:50.025Z,15.90
2022-08-29T20:48:18.843Z,15.90
2022-08-29T20:51:01.251Z,15.80
2022-08-29T20:53:33.701Z,15.70
2022-08-29T20:56:04.204Z,15.90
2022-08-29T20:58:34.664Z,15.80
2022-08-29T21:01:03.340Z,15.80
2022-08-29T21:03:52.629Z,15.90
2022-08-29T21:06:22.487Z,16.00
2022-08-29T21:08:49.496Z,15.90
2022-08-29T21:11:16.699Z,16.00
2022-08-29T21:13:50.037Z,16.00
2022-08-29T21:16:19.415Z,15.90
2022-08-29T21:18:46.142Z,15.80
2022-08-29T21:21:13.416Z,15.80
2022-08-29T21:23:40.526Z,15.70
2022-08-29T21:26:07.355Z,15.50
2022-08-29T21:28:34.649Z,15.60
2022-08-29T21:31:06.434Z,15.60
2022-08-29T21:33:40.616Z,15.60
2022-08-29T21:36:12.346Z,15.60
2022-08-29T21:38:39.107Z,15.50
2022-08-29T21:41:09.153Z,15.60
2022-08-29T21:43:36.196Z,15.50
2022-08-29T21:46:02.884Z,15.50
2022-08-29T21:48:29.784Z,15.40
2022-08-29T21:50:56.746Z,15.40
2022-08-29T21:53:23.455Z,15.50
2022-08-29T21:55:50.094Z,15.30
2022-08-29T21:58:17.928Z,15.30
2022-08-29T22:00:45.076Z,15.40
2022-08-29T22:03:12.918Z,15.40
2022-08-29T22:05:43.941Z,15.20
2022-08-29T22:08:14.220Z,15.00
2022-08-29T22:10:42.109Z,15.00
2022-08-29T22:13:08.994Z,14.80
2022-08-29T22:15:54.299Z,14.80
2022-08-29T22:18:21.494Z,14.90
2022-08-29T22:20:48.300Z,14.90
2022-08-29T22:23:20.540Z,14.90
2022-08-29T22:25:47.512Z,14.70
2022-08-29T22:28:14.226Z,14.50
2022-08-29T22:30:41.190Z,14.60
2022-08-29T22:33:16.168Z,14.70
2022-08-29T22:35:43.565Z,14.70
2022-08-29T22:38:10.624Z,14.60
2022-08-29T22:40:37.478Z,14.50
2022-08-29T22:43:04.558Z,14.50
2022-08-29T22:45:32.200Z,14.50
2022-08-29T22:47:58.916Z,14.40
2022-08-29T22:50:25.824Z,14.50
2022-08-29T22:52:57.266Z,14.60
2022-08-29T22:57:51.279Z,14.70
2022-08-29T23:00:21.289Z,14.80
2022-08-29T23:02:48.581Z,14.80
2022-08-29T23:05:16.699Z,14.80
2022-08-29T23:07:43.797Z,14.80
2022-08-29T23:10:11.616Z,14.80
2022-08-29T23:12:38.651Z,14.60
2022-08-29T23:15:08.083Z,14.50
2022-08-29T23:17:34.806Z,14.50
2022-08-29T23:20:01.494Z,14.60
2022-08-29T23:22:28.469Z,14.60
2022-08-29T23:24:58.690Z,14.60
2022-08-29T23:27:30.392Z,14.50
2022-08-29T23:29:58.761Z,14.50
2022-08-29T23:32:25.806Z,14.60
2022-08-29T23:34:52.663Z,14.60
2022-08-29T23:37:19.343Z,14.60
2022-08-29T23:39:46.692Z,14.80
2022-08-29T23:42:13.325Z,14.90
2022-08-29T23:44:40.031Z,14.70
2022-08-29T23:47:06.831Z,14.60
2022-08-29T23:49:35.203Z,14.80
2022-08-29T23:52:01.830Z,14.70
2022-08-29T23:54:31.278Z,14.80
2022-08-29T23:56:58.067Z,14.80
2022-08-29T23:59:43.257Z,14.60
